createdAt,value
2022-12-01T00:01:12.751Z,-2.46
2022-12-01T00:03:40.405Z,-2.47
2022-12-01T00:06:11.764Z,-2.46
2022-12-01T00:08:38.729Z,-2.56
2022-12-01T00:11:07.780Z,-2.57
2022-12-01T00:13:35.479Z,-2.58
2022-12-01T00:16:13.563Z,-2.58
2022-12-01T00:18:41.151Z,-2.46
2022-12-01T00:21:14.500Z,-2.48
2022-12-01T00:23:47.249Z,-2.44
2022-12-01T00:26:15.528Z,-2.45
2022-12-01T00:28:42.801Z,-2.55
2022-12-01T00:31:10.594Z,-2.46
2022-12-01T00:33:38.129Z,-2.46
2022-12-01T00:36:05.636Z,-2.46
2022-12-01T00:38:33.011Z,-2.47
2022-12-01T00:40:59.772Z,-2.48
2022-12-01T00:43:26.706Z,-2.47
2022-12-01T00:45:53.398Z,-2.48
2022-12-01T00:48:20.838Z,-2.48
2022-12-01T00:50:49.384Z,-2.49
2022-12-01T00:53:16.179Z,-2.49
2022-12-01T00:55:42.904Z,-2.50
2022-12-01T00:58:09.974Z,-2.51
2022-12-01T01:00:39.957Z,-2.55
2022-12-01T01:03:07.170Z,-2.55
2022-12-01T01:05:38.793Z,-2.60
2022-12-01T01:08:11.065Z,-2.65
2022-12-01T01:10:42.804Z,-2.66
2022-12-01T01:13:09.695Z,-2.70
2022-12-01T01:15:36.438Z,-2.75
2022-12-01T01:18:03.837Z,-2.80
2022-12-01T01:20:31.092Z,-2.84
2022-12-01T01:22:58.033Z,-2.89
2022-12-01T01:25:25.656Z,-2.93
2022-12-01T01:27:52.341Z,-3.04
2022-12-01T01:30:19.883Z,-2.97
2022-12-01T01:32:47.311Z,-3.00
2022-12-01T01:35:13.956Z,-3.04
2022-12-01T01:37:40.703Z,-3.07
2022-12-01T01:40:08.340Z,-3.09
2022-12-01T01:42:35.006Z,-3.20
2022-12-01T01:45:01.821Z,-3.13
2022-12-01T01:47:38.494Z,-3.15
2022-12-01T01:50:10.459Z,-3.27
2022-12-01T01:52:44.572Z,-3.21
2022-12-01T01:55:12.739Z,-3.34
2022-12-01T01:57:40.494Z,-3.27
2022-12-01T02:00:15.969Z,-3.27
2022-12-01T02:02:45.789Z,-3.31
2022-12-01T02:05:26.002Z,-3.32
2022-12-01T02:07:55.243Z,-3.33
2022-12-01T02:10:30.414Z,-3.34
2022-12-01T02:13:21.980Z,-3.36
2022-12-01T02:16:02.663Z,-3.39
2022-12-01T02:18:55.632Z,-3.42
2022-12-01T02:21:54.494Z,-3.56
2022-12-01T02:24:49.725Z,-3.52
2022-12-01T02:27:30.781Z,-3.59
2022-12-01T02:29:57.341Z,-3.62
2022-12-01T02:32:33.418Z,-3.74
2022-12-01T02:35:27.032Z,-3.75
2022-12-01T02:38:09.063Z,-3.75
2022-12-01T02:40:56.197Z,-3.77
2022-12-01T02:43:38.078Z,-3.81
2022-12-01T02:46:30.023Z,-3.80
2022-12-01T02:49:01.991Z,-3.95
2022-12-01T02:51:34.478Z,-3.86
2022-12-01T02:54:03.474Z,-3.98
2022-12-01T02:56:30.136Z,-3.99
2022-12-01T02:58:57.026Z,-3.93
2022-12-01T03:02:04.191Z,-3.99
2022-12-01T03:04:46.136Z,-3.99
2022-12-01T03:07:22.297Z,-4.04
2022-12-01T03:10:04.698Z,-4.07
2022-12-01T03:12:56.466Z,-4.11
2022-12-01T03:15:34.061Z,-4.13
2022-12-01T03:18:25.564Z,-4.27
2022-12-01T03:20:57.794Z,-4.20
2022-12-01T03:23:28.768Z,-4.22
2022-12-01T03:25:57.968Z,-4.25
2022-12-01T03:28:32.443Z,-4.40
2022-12-01T03:31:07.127Z,-4.32
2022-12-01T03:33:40.914Z,-4.34
2022-12-01T03:36:10.580Z,-4.34
2022-12-01T03:38:39.385Z,-4.37
2022-12-01T03:41:14.762Z,-4.40
2022-12-01T03:43:48.592Z,-4.43
2022-12-01T03:46:29.468Z,-4.48
2022-12-01T03:48:56.629Z,-4.48
2022-12-01T03:51:33.707Z,-4.52
2022-12-01T03:54:14.404Z,-4.64
2022-12-01T03:56:49.907Z,-4.60
2022-12-01T03:59:20.975Z,-4.60
2022-12-01T04:01:48.039Z,-4.59
2022-12-01T04:04:15.159Z,-4.64
2022-12-01T04:06:45.030Z,-4.72
2022-12-01T04:09:11.883Z,-4.65
2022-12-01T04:11:57.285Z,-4.69
2022-12-01T04:14:23.966Z,-4.71
2022-12-01T04:16:50.864Z,-4.73
2022-12-01T04:19:17.648Z,-4.75
2022-12-01T04:21:44.350Z,-4.77
2022-12-01T04:24:12.511Z,-4.81
2022-12-01T04:26:39.425Z,-4.93
2022-12-01T04:29:09.192Z,-4.85
2022-12-01T04:31:36.261Z,-4.87
2022-12-01T04:34:03.062Z,-4.87
2022-12-01T04:36:32.035Z,-4.88
2022-12-01T04:38:59.505Z,-4.87
2022-12-01T04:41:26.221Z,-4.87
2022-12-01T04:43:54.678Z,-4.91
2022-12-01T04:46:22.394Z,-4.91
2022-12-01T04:48:49.390Z,-5.00
2022-12-01T04:51:16.091Z,-5.02
2022-12-01T04:53:43.247Z,-4.94
2022-12-01T04:56:10.461Z,-4.95
2022-12-01T04:58:37.913Z,-4.97
2022-12-01T05:01:08.628Z,-5.00
2022-12-01T05:03:40.061Z,-5.00
2022-12-01T05:06:12.749Z,-5.02
2022-12-01T05:08:39.864Z,-5.02
2022-12-01T05:11:11.867Z,-5.04
2022-12-01T05:13:44.597Z,-5.07
2022-12-01T05:16:18.671Z,-5.08
2022-12-01T05:18:50.861Z,-5.10
2022-12-01T05:21:18.520Z,-5.12
2022-12-01T05:23:45.673Z,-5.16
2022-12-01T05:26:12.375Z,-5.28
2022-12-01T05:28:40.904Z,-5.21
2022-12-01T05:31:07.904Z,-5.33
2022-12-01T05:33:34.615Z,-5.25
2022-12-01T05:36:01.285Z,-5.28
2022-12-01T05:38:28.194Z,-5.29
2022-12-01T05:40:56.012Z,-5.29
2022-12-01T05:43:28.728Z,-5.30
2022-12-01T05:45:57.423Z,-5.31
2022-12-01T05:48:24.234Z,-5.31
2022-12-01T05:50:51.407Z,-5.40
2022-12-01T05:53:19.108Z,-5.30
2022-12-01T05:55:46.112Z,-5.39
2022-12-01T05:58:13.091Z,-5.30
2022-12-01T06:00:45.790Z,-5.30
2022-12-01T06:03:13.718Z,-5.38
2022-12-01T06:05:41.275Z,-5.37
2022-12-01T06:08:08.383Z,-5.28
2022-12-01T06:10:35.550Z,-5.33
2022-12-01T06:13:02.505Z,-5.31
2022-12-01T06:15:29.187Z,-5.19
2022-12-01T06:17:59.139Z,-5.16
2022-12-01T06:20:26.560Z,-5.20
2022-12-01T06:22:53.364Z,-5.21
2022-12-01T06:25:20.647Z,-5.07
2022-12-01T06:27:47.353Z,-5.04
2022-12-01T06:30:14.158Z,-5.07
2022-12-01T06:32:41.040Z,-4.94
2022-12-01T06:35:08.153Z,-4.91
2022-12-01T06:37:34.887Z,-4.95
2022-12-01T06:40:02.010Z,-4.81
2022-12-01T06:42:32.474Z,-4.77
2022-12-01T06:44:59.191Z,-4.73
2022-12-01T06:47:27.230Z,-4.68
2022-12-01T06:49:53.888Z,-4.71
2022-12-01T06:52:20.497Z,-4.58
2022-12-01T06:54:47.391Z,-4.66
2022-12-01T06:57:14.561Z,-4.51
2022-12-01T06:59:41.588Z,-4.49
2022-12-01T07:02:12.565Z,-4.51
2022-12-01T07:04:39.380Z,-4.48
2022-12-01T07:07:06.463Z,-4.46
2022-12-01T07:09:34.208Z,-4.44
2022-12-01T07:12:00.941Z,-4.51
2022-12-01T07:14:27.651Z,-4.40
2022-12-01T07:16:55.186Z,-4.39
2022-12-01T07:19:22.208Z,-4.36
2022-12-01T07:21:49.320Z,-4.37
2022-12-01T07:24:16.603Z,-4.35
2022-12-01T07:26:43.698Z,-4.38
2022-12-01T07:29:11.345Z,-4.27
2022-12-01T07:31:38.766Z,-4.24
2022-12-01T07:34:06.266Z,-4.20
2022-12-01T07:36:32.918Z,-4.16
2022-12-01T07:39:00.052Z,-4.14
2022-12-01T07:41:26.654Z,-4.22
2022-12-01T07:43:55.180Z,-4.19
2022-12-01T07:46:25.219Z,-4.06
2022-12-01T07:48:53.393Z,-4.12
2022-12-01T07:51:21.248Z,-3.99
2022-12-01T07:53:49.979Z,-3.98
2022-12-01T07:56:18.184Z,-4.04
2022-12-01T07:58:45.255Z,-3.90
2022-12-01T08:01:15.855Z,-3.87
2022-12-01T08:03:43.490Z,-3.84
2022-12-01T08:06:10.546Z,-3.83
2022-12-01T08:08:41.340Z,-3.78
2022-12-01T08:11:25.066Z,-3.72
2022-12-01T08:13:52.737Z,-3.77
2022-12-01T08:16:22.829Z,-3.64
2022-12-01T08:18:50.027Z,-3.65
2022-12-01T08:21:19.987Z,-3.62
2022-12-01T08:23:47.163Z,-3.65
2022-12-01T08:26:19.154Z,-3.58
2022-12-01T08:28:46.203Z,-3.68
2022-12-01T08:31:17.654Z,-3.53
2022-12-01T08:33:45.556Z,-3.61
2022-12-01T08:36:12.342Z,-3.51
2022-12-01T08:38:39.214Z,-3.48
2022-12-01T08:41:09.050Z,-3.53
2022-12-01T08:46:29.114Z,-3.37
2022-12-01T08:48:57.389Z,-3.33
2022-12-01T08:51:25.035Z,-3.27
2022-12-01T08:53:52.203Z,-3.33
2022-12-01T10:25:05.992Z,-0.84
2022-12-01T10:28:10.051Z,-0.84
2022-12-01T10:30:47.255Z,-1.17
2022-12-01T10:33:33.688Z,-1.15
2022-12-01T10:36:00.382Z,-1.26
2022-12-01T10:38:34.790Z,-1.16
2022-12-01T10:41:03.757Z,-1.13
2022-12-01T10:43:57.683Z,-1.14
2022-12-01T10:46:32.232Z,-1.10
2022-12-01T10:49:06.824Z,-1.12
2022-12-01T10:51:48.070Z,-1.12
2022-12-01T10:54:15.009Z,-1.22
2022-12-01T10:56:45.694Z,-1.18
2022-12-01T10:59:44.149Z,-1.11
2022-12-01T11:02:18.146Z,-1.17
2022-12-01T11:04:53.612Z,-1.13
2022-12-01T11:07:32.106Z,-1.02
2022-12-01T11:10:13.428Z,-1.03
2022-12-01T11:12:41.180Z,-1.05
2022-12-01T11:15:17.918Z,-1.02
2022-12-01T11:17:45.156Z,-1.02
2022-12-01T11:20:38.116Z,-1.02
2022-12-01T11:23:21.497Z,-1.04
2022-12-01T11:26:02.194Z,-1.04
2022-12-01T11:28:30.803Z,-1.16
2022-12-01T11:31:04.250Z,-1.05
2022-12-01T11:33:39.678Z,-1.06
2022-12-01T11:36:11.747Z,-1.08
2022-12-01T11:38:41.871Z,-1.07
2022-12-01T11:41:26.793Z,-1.09
2022-12-01T11:44:01.533Z,-1.10
2022-12-01T11:46:33.693Z,-1.09
2022-12-01T11:49:01.515Z,-1.09
2022-12-01T11:51:39.157Z,-1.11
2022-12-01T11:54:23.547Z,-1.15
2022-12-01T11:57:17.420Z,-1.16
2022-12-01T11:59:39.240Z,-1.16
2022-12-01T12:02:39.995Z,-1.19
2022-12-01T12:05:35.347Z,-1.19
2022-12-01T12:08:07.671Z,-1.20
2022-12-01T12:10:37.547Z,-1.19
2022-12-01T12:13:16.290Z,-1.19
2022-12-01T12:15:51.226Z,-1.27
2022-12-01T12:18:32.536Z,-1.16
2022-12-01T12:21:17.771Z,-1.19
2022-12-01T12:24:23.386Z,-1.16
2022-12-01T12:27:27.535Z,-1.27
2022-12-01T12:30:09.427Z,-1.19
2022-12-01T12:32:36.458Z,-1.18
2022-12-01T12:35:03.654Z,-1.16
2022-12-01T12:37:53.921Z,-1.17
2022-12-01T12:40:41.670Z,-1.24
2022-12-01T12:43:43.922Z,-1.16
2022-12-01T12:46:27.649Z,-1.11
2022-12-01T12:49:26.435Z,-1.18
2022-12-01T12:52:14.963Z,-1.12
2022-12-01T12:54:58.975Z,-1.24
2022-12-01T12:57:29.694Z,-1.29
2022-12-01T13:00:04.673Z,-1.26
2022-12-01T13:02:41.014Z,-1.31
2022-12-01T13:05:23.829Z,-1.36
2022-12-01T13:07:59.800Z,-1.38
2022-12-01T13:10:34.440Z,-1.41
2022-12-01T13:13:30.791Z,-1.44
2022-12-01T13:15:59.513Z,-1.47
2022-12-01T13:18:39.432Z,-1.48
2022-12-01T13:21:07.190Z,-1.49
2022-12-01T13:23:37.912Z,-1.47
2022-12-01T13:26:08.794Z,-1.56
2022-12-01T13:28:50.289Z,-1.53
2022-12-01T13:31:19.283Z,-1.45
2022-12-01T13:33:58.110Z,-1.44
2022-12-01T13:39:29.629Z,-1.44
2022-12-01T13:42:21.666Z,-1.44
2022-12-01T13:44:58.313Z,-1.48
2022-12-01T13:47:37.067Z,-1.46
2022-12-01T13:50:46.062Z,-1.55
2022-12-01T13:53:25.230Z,-1.47
2022-12-01T13:56:17.249Z,-1.55
2022-12-01T13:58:46.078Z,-1.47
2022-12-01T14:01:25.723Z,-1.47
2022-12-01T14:04:03.278Z,-1.47
2022-12-01T14:06:36.136Z,-1.48
2022-12-01T14:09:14.812Z,-1.47
2022-12-01T14:11:54.272Z,-1.55
2022-12-01T14:14:26.322Z,-1.55
2022-12-01T14:16:55.575Z,-1.46
2022-12-01T14:19:47.950Z,-1.54
2022-12-01T14:22:44.598Z,-1.45
2022-12-01T14:25:20.759Z,-1.45
2022-12-01T14:27:52.592Z,-1.45
2022-12-01T14:30:38.522Z,-1.46
2022-12-01T14:33:39.752Z,-1.46
2022-12-01T14:36:09.151Z,-1.47
2022-12-01T14:38:36.802Z,-1.47
2022-12-01T14:41:09.963Z,-1.48
2022-12-01T14:44:00.150Z,-1.51
2022-12-01T14:46:30.943Z,-1.49
2022-12-01T14:48:59.021Z,-1.47
2022-12-01T14:51:32.688Z,-1.47
2022-12-01T14:54:04.206Z,-1.46
2022-12-01T14:56:33.275Z,-1.48
2022-12-01T14:59:15.174Z,-1.47
2022-12-01T15:01:42.014Z,-1.50
2022-12-01T15:04:09.116Z,-1.49
2022-12-01T15:06:37.643Z,-1.49
2022-12-01T15:12:04.757Z,-1.49
2022-12-01T15:14:37.097Z,-1.49
2022-12-01T15:17:06.226Z,-1.49
2022-12-01T15:19:37.481Z,-1.52
2022-12-01T15:22:17.834Z,-1.49
2022-12-01T15:24:45.624Z,-1.50
2022-12-01T15:27:43.160Z,-1.58
2022-12-01T15:30:15.420Z,-1.50
2022-12-01T15:32:45.858Z,-1.51
2022-12-01T15:35:21.574Z,-1.51
2022-12-01T15:37:50.701Z,-1.50
2022-12-01T15:43:16.702Z,-1.62
2022-12-01T15:45:55.079Z,-1.56
2022-12-01T15:48:34.352Z,-1.63
2022-12-01T15:51:27.007Z,-1.52
2022-12-01T15:53:58.244Z,-1.54
2022-12-01T15:56:31.707Z,-1.55
2022-12-01T15:59:51.293Z,-1.53
2022-12-01T16:02:30.619Z,-1.54
2022-12-01T16:05:14.647Z,-1.53
2022-12-01T16:08:12.151Z,-1.55
2022-12-01T16:10:31.864Z,-1.54
2022-12-01T16:13:36.221Z,-1.56
2022-12-01T16:16:30.224Z,-1.54
2022-12-01T16:19:02.272Z,-1.54
2022-12-01T16:21:33.852Z,-1.54
2022-12-01T16:24:05.791Z,-1.52
2022-12-01T16:26:33.782Z,-1.53
2022-12-01T16:29:00.592Z,-1.63
2022-12-01T16:31:27.486Z,-1.54
2022-12-01T16:34:13.896Z,-1.53
2022-12-01T16:36:46.107Z,-1.54
2022-12-01T16:39:14.334Z,-1.53
2022-12-01T16:41:44.817Z,-1.54
2022-12-01T16:44:28.118Z,-1.54
2022-12-01T16:46:56.185Z,-1.56
2022-12-01T16:49:23.057Z,-1.58
2022-12-01T16:51:56.077Z,-1.61
2022-12-01T16:54:23.837Z,-1.63
2022-12-01T16:56:51.072Z,-1.67
2022-12-01T16:59:17.792Z,-1.68
2022-12-01T17:01:44.788Z,-1.70
2022-12-01T17:04:11.531Z,-1.71
2022-12-01T17:06:38.469Z,-1.73
2022-12-01T17:09:06.002Z,-1.75
2022-12-01T17:11:33.004Z,-1.75
2022-12-01T17:13:59.879Z,-1.78
2022-12-01T17:16:27.040Z,-1.91
2022-12-01T17:18:53.781Z,-1.84
2022-12-01T17:21:20.522Z,-1.84
2022-12-01T17:23:47.863Z,-1.87
2022-12-01T17:26:16.556Z,-1.88
2022-12-01T17:28:43.519Z,-1.89
2022-12-01T17:31:12.146Z,-1.93
2022-12-01T17:33:39.631Z,-2.01
2022-12-01T17:36:14.603Z,-1.93
2022-12-01T17:38:44.785Z,-2.02
2022-12-01T17:41:14.244Z,-1.93
2022-12-01T17:43:42.248Z,-1.97
2022-12-01T17:46:11.628Z,-1.97
2022-12-01T17:48:40.664Z,-1.97
2022-12-01T17:51:09.064Z,-1.99
2022-12-01T17:53:37.032Z,-2.02
2022-12-01T17:56:08.488Z,-2.07
2022-12-01T17:58:36.418Z,-2.14
2022-12-01T18:01:03.967Z,-2.18
2022-12-01T18:03:31.317Z,-2.10
2022-12-01T18:05:59.499Z,-2.11
2022-12-01T18:08:28.146Z,-2.14
2022-12-01T18:10:55.242Z,-2.18
2022-12-01T18:13:22.960Z,-2.20
2022-12-01T18:15:51.134Z,-2.21
2022-12-01T18:18:18.460Z,-2.25
2022-12-01T18:20:45.704Z,-2.28
2022-12-01T18:23:13.343Z,-2.29
2022-12-01T18:25:40.488Z,-2.31
2022-12-01T18:28:07.974Z,-2.34
2022-12-01T18:30:35.011Z,-2.35
2022-12-01T18:33:02.174Z,-2.37
2022-12-01T18:35:31.884Z,-2.39
2022-12-01T18:37:58.931Z,-2.41
2022-12-01T18:40:27.188Z,-2.43
2022-12-01T18:42:53.918Z,-2.44
2022-12-01T18:45:21.446Z,-2.58
2022-12-01T18:47:50.091Z,-2.48
2022-12-01T18:50:17.129Z,-2.50
2022-12-01T18:52:44.163Z,-2.52
2022-12-01T18:55:11.218Z,-2.54
2022-12-01T18:57:37.869Z,-2.56
2022-12-01T19:00:06.128Z,-2.58
2022-12-01T19:02:33.112Z,-2.58
2022-12-01T19:04:59.816Z,-2.61
2022-12-01T19:07:29.955Z,-2.70
2022-12-01T19:09:57.841Z,-2.61
2022-12-01T19:12:24.513Z,-2.68
2022-12-01T19:14:53.074Z,-2.65
2022-12-01T19:17:21.470Z,-2.76
2022-12-01T19:19:48.150Z,-2.66
2022-12-01T19:22:17.509Z,-2.67
2022-12-01T19:24:49.898Z,-2.80
2022-12-01T19:27:20.054Z,-2.67
2022-12-01T19:29:49.591Z,-2.67
2022-12-01T19:32:16.522Z,-2.69
2022-12-01T19:34:44.110Z,-2.69
2022-12-01T19:37:11.410Z,-2.71
2022-12-01T19:39:38.204Z,-2.69
2022-12-01T19:42:05.225Z,-2.77
2022-12-01T19:44:32.146Z,-2.72
2022-12-01T19:46:58.844Z,-2.70
2022-12-01T19:49:25.576Z,-2.70
2022-12-01T19:51:52.502Z,-2.70
2022-12-01T19:54:20.244Z,-2.81
2022-12-01T19:56:47.097Z,-2.70
2022-12-01T19:59:14.941Z,-2.72
2022-12-01T20:01:41.681Z,-2.71
2022-12-01T20:04:08.852Z,-2.73
2022-12-01T20:06:37.828Z,-2.73
2022-12-01T20:09:06.342Z,-2.83
2022-12-01T20:11:35.295Z,-2.73
2022-12-01T20:14:04.097Z,-2.73
2022-12-01T20:16:30.878Z,-2.71
2022-12-01T20:19:01.629Z,-2.75
2022-12-01T20:21:31.718Z,-2.77
2022-12-01T20:24:06.839Z,-2.79
2022-12-01T20:26:36.812Z,-2.81
2022-12-01T20:29:09.839Z,-2.83
2022-12-01T20:31:37.630Z,-2.86
2022-12-01T20:34:09.042Z,-3.00
2022-12-01T20:36:36.813Z,-2.90
2022-12-01T20:39:04.915Z,-2.92
2022-12-01T20:41:32.395Z,-2.94
2022-12-01T20:44:02.432Z,-2.97
2022-12-01T20:46:34.453Z,-2.98
2022-12-01T20:49:01.246Z,-3.10
2022-12-01T20:51:28.373Z,-3.03
2022-12-01T20:54:26.062Z,-3.08
2022-12-01T20:56:42.029Z,-3.11
2022-12-01T20:59:09.114Z,-3.17
2022-12-01T21:01:36.147Z,-3.10
2022-12-01T21:04:03.226Z,-3.08
2022-12-01T21:06:30.231Z,-3.10
2022-12-01T21:08:56.874Z,-3.07
2022-12-01T21:12:03.512Z,-3.08
2022-12-01T21:14:37.710Z,-3.08
2022-12-01T21:17:18.335Z,-3.11
2022-12-01T21:19:57.140Z,-3.17
2022-12-01T21:22:24.924Z,-3.10
2022-12-01T21:24:56.322Z,-3.10
2022-12-01T21:27:22.942Z,-3.13
2022-12-01T21:29:50.649Z,-3.14
2022-12-01T21:32:22.574Z,-3.16
2022-12-01T21:34:50.052Z,-3.24
2022-12-01T21:37:22.136Z,-3.23
2022-12-01T21:39:51.109Z,-3.27
2022-12-01T21:42:25.133Z,-3.29
2022-12-01T21:44:52.504Z,-3.37
2022-12-01T21:47:21.655Z,-3.34
2022-12-01T21:49:56.167Z,-3.33
2022-12-01T21:52:30.030Z,-3.36
2022-12-01T21:55:09.122Z,-3.39
2022-12-01T21:57:48.054Z,-3.42
2022-12-01T22:00:31.528Z,-3.46
2022-12-01T22:03:29.160Z,-3.55
2022-12-01T22:06:28.397Z,-3.47
2022-12-01T22:08:57.711Z,-3.47
2022-12-01T22:11:27.017Z,-3.50
2022-12-01T22:14:09.338Z,-3.49
2022-12-01T22:16:40.869Z,-3.48
2022-12-01T22:19:32.190Z,-3.48
2022-12-01T22:22:01.808Z,-3.49
2022-12-01T22:24:40.997Z,-3.60
2022-12-01T22:27:16.435Z,-3.48
2022-12-01T22:29:46.044Z,-3.48
2022-12-01T22:32:13.035Z,-3.56
2022-12-01T22:34:49.594Z,-3.67
2022-12-01T22:37:22.287Z,-3.48
2022-12-01T22:39:51.653Z,-3.47
2022-12-01T22:42:25.747Z,-3.46
2022-12-01T22:44:52.775Z,-3.45
2022-12-01T22:47:19.891Z,-3.45
2022-12-01T22:49:46.623Z,-3.54
2022-12-01T22:52:27.096Z,-3.46
2022-12-01T22:54:55.030Z,-3.51
2022-12-01T22:57:24.824Z,-3.44
2022-12-01T22:59:52.645Z,-3.44
2022-12-01T23:02:27.079Z,-3.45
2022-12-01T23:04:59.736Z,-3.47
2022-12-01T23:07:31.306Z,-3.60
2022-12-01T23:10:19.323Z,-3.48
2022-12-01T23:12:48.644Z,-3.50
2022-12-01T23:15:15.209Z,-3.49
2022-12-01T23:17:41.937Z,-3.53
2022-12-01T23:20:30.991Z,-3.54
2022-12-01T23:23:00.624Z,-3.57
2022-12-01T23:25:28.364Z,-3.48
2022-12-01T23:27:59.201Z,-3.48
2022-12-01T23:30:26.311Z,-3.49
2022-12-01T23:33:04.161Z,-3.49
2022-12-01T23:35:34.796Z,-3.46
2022-12-01T23:38:02.008Z,-3.47
2022-12-01T23:40:34.342Z,-3.54
2022-12-01T23:43:17.734Z,-3.52
2022-12-01T23:45:45.867Z,-3.48
2022-12-01T23:48:19.376Z,-3.49
2022-12-01T23:50:49.535Z,-3.50
2022-12-01T23:53:25.665Z,-3.52
2022-12-01T23:55:53.279Z,-3.53
2022-12-01T23:58:20.284Z,-3.52
